createdAt,value
2023-03-16T00:02:13.197Z,78.81
2023-03-16T00:04:40.798Z,78.74
2023-03-16T00:07:10.924Z,78.53
2023-03-16T00:09:41.375Z,78.88
2023-03-16T00:12:18.900Z,78.02
2023-03-16T00:14:48.438Z,78.27
2023-03-16T00:17:20.550Z,79.37
2023-03-16T00:19:55.336Z,79.22
2023-03-16T00:22:29.449Z,79.33
2023-03-16T00:24:58.005Z,78.00
2023-03-16T00:27:26.708Z,76.51
2023-03-16T00:29:57.675Z,76.17
2023-03-16T00:32:30.354Z,77.26
2023-03-16T00:34:58.775Z,77.47
2023-03-16T00:37:28.341Z,77.45
2023-03-16T00:39:56.635Z,77.10
2023-03-16T00:42:27.893Z,77.23
2023-03-16T00:44:57.384Z,77.18
2023-03-16T00:47:28.545Z,77.74
2023-03-16T00:49:56.924Z,78.16
2023-03-16T00:52:27.358Z,77.63
2023-03-16T00:54:56.547Z,77.83
2023-03-16T00:57:27.779Z,78.17
2023-03-16T00:59:56.356Z,76.81
2023-03-16T01:02:24.787Z,77.08
2023-03-16T01:04:54.858Z,76.72
2023-03-16T01:07:23.013Z,77.21
2023-03-16T01:09:51.586Z,75.71
2023-03-16T01:12:20.506Z,76.23
2023-03-16T01:14:48.303Z,76.97
2023-03-16T01:17:17.722Z,77.08
2023-03-16T01:19:46.542Z,76.24
2023-03-16T01:22:15.670Z,76.67
2023-03-16T01:24:47.261Z,77.86
2023-03-16T01:27:15.224Z,77.96
2023-03-16T01:29:43.739Z,78.28
2023-03-16T01:32:12.281Z,77.62
2023-03-16T01:34:39.900Z,76.00
2023-03-16T01:37:07.860Z,75.95
2023-03-16T01:39:41.392Z,76.92
2023-03-16T01:42:10.404Z,76.62
2023-03-16T01:45:01.605Z,78.41
2023-03-16T01:47:38.466Z,79.72
2023-03-16T01:50:12.427Z,80.59
2023-03-16T01:52:42.306Z,80.86
2023-03-16T01:55:16.189Z,81.19
2023-03-16T01:57:47.389Z,81.29
2023-03-16T02:00:23.381Z,81.96
2023-03-16T02:03:17.187Z,81.13
2023-03-16T02:06:14.883Z,80.32
2023-03-16T02:08:48.627Z,80.24
2023-03-16T02:11:18.547Z,80.55
2023-03-16T02:13:58.896Z,80.86
2023-03-16T02:16:27.279Z,81.19
2023-03-16T02:18:54.825Z,81.35
2023-03-16T02:21:59.536Z,81.64
2023-03-16T02:24:27.242Z,82.48
2023-03-16T02:27:04.696Z,81.69
2023-03-16T02:29:56.784Z,81.18
2023-03-16T02:32:30.015Z,78.06
2023-03-16T02:35:00.226Z,75.25
2023-03-16T02:37:28.173Z,77.01
2023-03-16T02:39:55.749Z,78.20
2023-03-16T02:42:26.576Z,77.43
2023-03-16T02:44:59.472Z,78.80
2023-03-16T02:47:42.109Z,76.56
2023-03-16T02:50:11.267Z,77.46
2023-03-16T02:52:39.771Z,79.51
2023-03-16T02:55:11.813Z,78.39
2023-03-16T02:57:39.283Z,77.05
2023-03-16T03:00:17.227Z,77.56
2023-03-16T03:02:47.052Z,78.00
2023-03-16T03:05:17.687Z,78.73
2023-03-16T03:07:45.180Z,78.79
2023-03-16T03:10:13.852Z,77.73
2023-03-16T03:12:41.412Z,78.15
2023-03-16T03:15:11.983Z,77.25
2023-03-16T03:17:51.064Z,77.83
2023-03-16T03:20:19.606Z,76.66
2023-03-16T03:22:50.019Z,76.28
2023-03-16T03:25:19.146Z,77.39
2023-03-16T03:27:48.856Z,76.95
2023-03-16T03:30:24.500Z,76.15
2023-03-16T03:32:54.881Z,76.32
2023-03-16T03:35:23.236Z,76.56
2023-03-16T03:37:51.358Z,76.65
2023-03-16T03:40:20.962Z,77.72
2023-03-16T03:42:52.936Z,77.12
2023-03-16T03:45:20.690Z,76.88
2023-03-16T03:47:48.317Z,77.82
2023-03-16T03:50:20.131Z,77.67
2023-03-16T03:53:10.346Z,78.21
2023-03-16T03:55:54.687Z,78.11
2023-03-16T03:58:22.223Z,78.38
2023-03-16T04:00:49.713Z,79.24
2023-03-16T04:03:17.755Z,78.41
2023-03-16T04:05:46.296Z,77.86
2023-03-16T04:08:13.830Z,79.27
2023-03-16T04:10:41.264Z,78.72
2023-03-16T04:13:08.889Z,79.21
2023-03-16T04:15:38.588Z,79.73
2023-03-16T04:18:19.874Z,79.42
2023-03-16T04:20:47.418Z,78.95
2023-03-16T04:23:19.444Z,79.56
2023-03-16T04:25:50.254Z,78.92
2023-03-16T04:28:19.855Z,79.16
2023-03-16T04:30:54.415Z,79.24
2023-03-16T04:33:37.932Z,79.01
2023-03-16T04:36:07.924Z,80.12
2023-03-16T04:38:37.914Z,79.47
2023-03-16T04:41:07.210Z,80.80
2023-03-16T04:43:39.035Z,80.72
2023-03-16T04:46:20.039Z,80.88
2023-03-16T04:48:47.594Z,81.12
2023-03-16T04:51:15.457Z,80.82
2023-03-16T04:53:52.005Z,80.16
2023-03-16T04:56:25.353Z,80.93
2023-03-16T04:58:58.076Z,80.61
2023-03-16T05:01:29.438Z,80.93
2023-03-16T05:03:59.933Z,78.94
2023-03-16T05:06:29.185Z,79.36
2023-03-16T05:09:00.993Z,79.37
2023-03-16T05:11:29.234Z,79.08
2023-03-16T05:14:00.092Z,79.85
2023-03-16T05:16:28.552Z,79.61
2023-03-16T05:18:59.664Z,80.55
2023-03-16T05:21:32.178Z,80.40
2023-03-16T05:24:08.338Z,80.08
2023-03-16T05:26:36.198Z,78.98
2023-03-16T05:29:06.119Z,79.70
2023-03-16T05:31:34.016Z,78.84
2023-03-16T05:34:03.941Z,79.19
2023-03-16T05:36:32.755Z,79.64
2023-03-16T05:39:08.492Z,78.49
2023-03-16T05:41:39.421Z,78.62
2023-03-16T05:44:17.246Z,78.45
2023-03-16T05:47:04.179Z,79.03
2023-03-16T05:49:33.918Z,77.98
2023-03-16T05:52:04.289Z,77.23
2023-03-16T05:54:33.954Z,77.48
2023-03-16T05:57:01.662Z,76.92
2023-03-16T05:59:29.423Z,76.78
2023-03-16T06:01:58.490Z,77.47
2023-03-16T06:04:27.154Z,76.85
2023-03-16T06:06:54.768Z,76.07
2023-03-16T06:09:26.153Z,76.77
2023-03-16T06:11:55.137Z,76.99
2023-03-16T06:14:24.008Z,77.06
2023-03-16T06:16:53.530Z,76.81
2023-03-16T06:19:21.749Z,76.69
2023-03-16T06:21:54.116Z,75.92
2023-03-16T06:24:21.647Z,76.35
2023-03-16T06:26:49.119Z,75.49
2023-03-16T06:29:17.748Z,74.94
2023-03-16T06:31:45.866Z,75.43
2023-03-16T06:34:13.370Z,75.15
2023-03-16T06:36:41.640Z,74.83
2023-03-16T06:39:14.397Z,75.68
2023-03-16T06:41:44.183Z,74.23
2023-03-16T06:44:14.153Z,74.76
2023-03-16T06:46:52.372Z,74.79
2023-03-16T06:49:19.889Z,74.52
2023-03-16T06:51:47.372Z,74.01
2023-03-16T06:54:15.296Z,73.33
2023-03-16T06:56:45.231Z,73.70
2023-03-16T06:59:13.819Z,73.17
2023-03-16T07:01:42.284Z,73.64
2023-03-16T07:04:09.984Z,72.26
2023-03-16T07:06:40.109Z,72.14
2023-03-16T07:09:08.789Z,71.25
2023-03-16T07:11:36.503Z,72.31
2023-03-16T07:14:04.088Z,70.68
2023-03-16T07:16:33.385Z,71.15
2023-03-16T07:19:03.978Z,71.85
2023-03-16T07:21:39.208Z,72.78
2023-03-16T07:24:11.174Z,70.99
2023-03-16T07:26:43.257Z,71.49
2023-03-16T07:29:14.487Z,70.43
2023-03-16T07:31:42.842Z,70.36
2023-03-16T07:34:15.817Z,70.76
2023-03-16T07:36:49.509Z,69.76
2023-03-16T07:39:17.865Z,70.17
2023-03-16T07:41:46.865Z,70.51
2023-03-16T07:44:16.824Z,70.53
2023-03-16T07:46:48.406Z,70.10
2023-03-16T07:49:16.853Z,68.59
2023-03-16T07:51:45.674Z,69.76
2023-03-16T07:54:14.067Z,70.02
2023-03-16T07:56:48.880Z,68.95
2023-03-16T07:59:27.136Z,69.65
2023-03-16T08:01:54.907Z,68.29
2023-03-16T08:04:22.466Z,68.11
2023-03-16T08:07:00.272Z,68.33
2023-03-16T08:09:35.910Z,67.95
2023-03-16T08:12:08.509Z,68.09
2023-03-16T08:14:37.268Z,67.40
2023-03-16T08:17:15.483Z,67.68
2023-03-16T08:19:44.313Z,68.86
2023-03-16T08:22:12.502Z,67.41
2023-03-16T08:24:43.811Z,67.51
2023-03-16T08:27:13.325Z,66.38
2023-03-16T08:29:44.731Z,66.57
2023-03-16T08:32:16.228Z,65.45
2023-03-16T08:34:46.036Z,65.46
2023-03-16T08:37:16.692Z,67.34
2023-03-16T08:39:46.150Z,65.71
2023-03-16T08:42:17.373Z,65.00
2023-03-16T08:44:49.377Z,65.06
2023-03-16T08:47:19.580Z,65.43
2023-03-16T08:49:47.249Z,63.69
2023-03-16T08:52:16.731Z,62.41
2023-03-16T08:54:59.831Z,62.39
2023-03-16T08:57:29.704Z,61.48
2023-03-16T08:59:57.260Z,60.51
2023-03-16T09:02:25.736Z,60.54
2023-03-16T09:04:53.604Z,60.29
2023-03-16T09:07:21.176Z,59.76
2023-03-16T09:09:48.713Z,60.72
2023-03-16T09:12:16.220Z,59.40
2023-03-16T09:14:43.699Z,59.07
2023-03-16T09:17:11.851Z,59.52
2023-03-16T09:19:51.206Z,58.24
2023-03-16T09:22:21.281Z,58.51
2023-03-16T09:24:51.307Z,59.19
2023-03-16T09:27:20.740Z,57.89
2023-03-16T09:29:50.802Z,56.79
2023-03-16T09:32:18.547Z,57.53
2023-03-16T09:34:46.126Z,57.50
2023-03-16T09:37:14.550Z,56.68
2023-03-16T09:39:42.040Z,58.36
2023-03-16T09:42:30.822Z,57.70
2023-03-16T09:45:17.300Z,58.04
2023-03-16T09:47:48.549Z,57.03
2023-03-16T09:50:35.278Z,55.01
2023-03-16T09:53:27.827Z,54.65
2023-03-16T09:56:20.565Z,55.24
2023-03-16T09:58:48.039Z,54.89
2023-03-16T10:01:21.122Z,54.26
2023-03-16T10:04:29.278Z,53.49
2023-03-16T10:07:11.396Z,54.66
2023-03-16T10:09:54.908Z,52.83
2023-03-16T10:12:32.379Z,53.28
2023-03-16T10:15:13.573Z,53.78
2023-03-16T10:18:02.119Z,53.12
2023-03-16T10:20:34.525Z,51.82
2023-03-16T10:23:17.989Z,52.05
2023-03-16T10:25:51.812Z,51.61
2023-03-16T10:28:26.236Z,52.36
2023-03-16T10:30:59.314Z,51.04
2023-03-16T10:33:36.631Z,50.83
2023-03-16T10:36:14.296Z,50.78
2023-03-16T10:38:42.953Z,50.91
2023-03-16T10:41:22.370Z,50.55
2023-03-16T10:43:58.099Z,49.83
2023-03-16T10:46:28.458Z,49.96
2023-03-16T10:49:02.224Z,49.75
2023-03-16T10:51:36.199Z,50.04
2023-03-16T10:54:17.943Z,50.09
2023-03-16T10:56:46.123Z,48.80
2023-03-16T10:59:32.831Z,49.89
2023-03-16T11:02:17.878Z,49.93
2023-03-16T11:04:46.245Z,49.47
2023-03-16T11:07:25.675Z,48.89
2023-03-16T11:09:54.849Z,49.49
2023-03-16T11:12:28.950Z,48.55
2023-03-16T11:15:23.671Z,48.61
2023-03-16T11:17:54.714Z,48.74
2023-03-16T11:20:28.708Z,48.52
2023-03-16T11:22:56.992Z,48.24
2023-03-16T11:25:50.068Z,47.84
2023-03-16T11:29:01.776Z,48.56
2023-03-16T11:32:15.345Z,48.10
2023-03-16T11:34:43.558Z,48.78
2023-03-16T11:37:52.728Z,48.52
2023-03-16T11:40:38.533Z,47.46
2023-03-16T11:43:55.453Z,48.53
2023-03-16T11:46:42.208Z,48.95
2023-03-16T11:49:51.963Z,48.46
2023-03-16T11:53:18.442Z,48.58
2023-03-16T11:56:08.655Z,48.36
2023-03-16T11:59:30.537Z,48.67
2023-03-16T12:02:45.440Z,48.79
2023-03-16T12:05:55.284Z,48.79
2023-03-16T12:08:40.780Z,48.74
2023-03-16T12:11:31.219Z,48.36
2023-03-16T12:14:35.015Z,48.66
2023-03-16T12:17:23.786Z,49.21
2023-03-16T12:20:17.485Z,48.83
2023-03-16T12:23:14.446Z,49.27
2023-03-16T12:25:46.168Z,48.89
2023-03-16T12:28:26.714Z,48.63
2023-03-16T12:30:59.183Z,48.61
2023-03-16T12:33:55.330Z,49.28
2023-03-16T12:37:06.135Z,48.75
2023-03-16T12:39:45.813Z,49.08
2023-03-16T12:43:16.955Z,51.12
2023-03-16T12:46:12.026Z,49.83
2023-03-16T12:48:45.642Z,50.72
2023-03-16T12:51:13.151Z,49.08
2023-03-16T12:53:54.728Z,49.08
2023-03-16T12:56:35.301Z,49.76
2023-03-16T12:59:10.085Z,49.75
2023-03-16T13:01:46.188Z,50.52
2023-03-16T13:04:33.787Z,50.03
2023-03-16T13:07:24.387Z,50.70
2023-03-16T13:10:14.662Z,49.83
2023-03-16T13:12:43.801Z,50.48
2023-03-16T13:15:21.394Z,50.06
2023-03-16T13:18:02.929Z,51.04
2023-03-16T13:20:51.123Z,51.01
2023-03-16T13:23:18.529Z,50.68
2023-03-16T13:26:16.999Z,50.72
2023-03-16T13:28:54.372Z,50.73
2023-03-16T13:31:36.033Z,50.86
2023-03-16T13:34:06.096Z,50.52
2023-03-16T13:36:37.109Z,51.15
2023-03-16T13:39:23.692Z,51.75
2023-03-16T13:42:24.836Z,50.81
2023-03-16T13:44:58.557Z,50.80
2023-03-16T13:47:28.174Z,51.31
2023-03-16T13:50:00.181Z,51.82
2023-03-16T13:52:31.672Z,51.41
2023-03-16T13:55:01.965Z,51.77
2023-03-16T13:57:37.029Z,52.27
2023-03-16T14:00:25.645Z,51.81
2023-03-16T14:02:59.327Z,52.09
2023-03-16T14:05:35.253Z,52.54
2023-03-16T14:08:04.982Z,52.77
2023-03-16T14:10:36.127Z,53.89
2023-03-16T14:13:42.890Z,53.99
2023-03-16T14:16:18.647Z,54.60
2023-03-16T14:18:57.757Z,54.20
2023-03-16T14:21:31.446Z,54.93
2023-03-16T14:24:02.090Z,54.36
2023-03-16T14:26:45.032Z,55.55
2023-03-16T14:29:31.775Z,55.95
2023-03-16T14:32:00.479Z,55.87
2023-03-16T14:34:35.532Z,55.39
2023-03-16T14:37:15.882Z,56.65
2023-03-16T14:39:43.888Z,56.65
2023-03-16T14:42:30.622Z,56.43
2023-03-16T14:45:00.944Z,57.00
2023-03-16T14:47:32.198Z,58.42
2023-03-16T14:50:08.639Z,58.10
2023-03-16T14:52:37.272Z,57.63
2023-03-16T14:55:17.105Z,57.54
2023-03-16T14:57:45.526Z,58.69
2023-03-16T15:00:17.228Z,58.43
2023-03-16T15:03:10.299Z,59.38
2023-03-16T15:05:46.615Z,59.10
2023-03-16T15:08:27.397Z,59.90
2023-03-16T15:11:05.945Z,59.74
2023-03-16T15:13:42.265Z,60.51
2023-03-16T15:16:14.463Z,60.20
2023-03-16T15:18:42.887Z,60.38
2023-03-16T15:21:15.491Z,61.05
2023-03-16T15:23:44.845Z,60.35
2023-03-16T15:26:15.119Z,60.02
2023-03-16T15:28:42.976Z,61.14
2023-03-16T15:31:14.479Z,61.09
2023-03-16T15:33:42.861Z,61.25
2023-03-16T15:36:19.762Z,60.67
2023-03-16T15:38:53.282Z,62.34
2023-03-16T15:41:21.361Z,61.10
2023-03-16T15:43:49.174Z,61.65
2023-03-16T15:46:16.936Z,61.21
2023-03-16T15:48:45.745Z,60.54
2023-03-16T15:51:25.782Z,60.46
2023-03-16T15:54:00.421Z,61.50
2023-03-16T15:56:41.231Z,61.32
2023-03-16T15:59:17.342Z,60.90
2023-03-16T16:01:48.486Z,61.19
2023-03-16T16:04:20.066Z,61.56
2023-03-16T16:06:49.347Z,61.82
2023-03-16T16:09:18.623Z,61.82
2023-03-16T16:11:49.086Z,62.29
2023-03-16T16:14:23.037Z,61.75
2023-03-16T16:16:50.626Z,61.83
2023-03-16T16:19:18.909Z,61.54
2023-03-16T16:21:48.031Z,61.88
2023-03-16T16:24:20.723Z,62.08
2023-03-16T16:26:54.141Z,60.52
2023-03-16T16:29:28.174Z,61.78
2023-03-16T16:31:55.921Z,61.74
2023-03-16T16:34:25.697Z,60.99
2023-03-16T16:36:54.999Z,62.20
2023-03-16T16:39:25.467Z,61.79
2023-03-16T16:41:57.126Z,62.08
2023-03-16T16:44:32.022Z,62.19
2023-03-16T16:47:03.475Z,63.64
2023-03-16T16:49:35.441Z,63.27
2023-03-16T16:52:04.923Z,62.88
2023-03-16T16:54:35.468Z,63.07
2023-03-16T16:57:05.638Z,63.65
2023-03-16T16:59:37.611Z,63.68
2023-03-16T17:02:29.420Z,63.05
2023-03-16T17:04:57.183Z,63.01
2023-03-16T17:07:26.320Z,63.30
2023-03-16T17:09:53.809Z,63.94
2023-03-16T17:12:26.079Z,63.65
2023-03-16T17:14:55.069Z,63.95
2023-03-16T17:17:22.632Z,64.41
2023-03-16T17:19:50.211Z,65.09
2023-03-16T17:22:30.307Z,64.67
2023-03-16T17:24:58.912Z,65.11
2023-03-16T17:27:32.229Z,65.24
2023-03-16T17:30:05.452Z,65.60
2023-03-16T17:32:34.199Z,66.60
2023-03-16T17:35:01.784Z,66.73
2023-03-16T17:37:31.394Z,67.00
2023-03-16T17:40:00.986Z,66.18
2023-03-16T17:42:28.630Z,67.40
2023-03-16T17:44:58.056Z,67.39
2023-03-16T17:47:28.638Z,68.76
2023-03-16T17:49:57.242Z,67.50
2023-03-16T17:52:29.167Z,68.40
2023-03-16T17:54:58.380Z,67.82
2023-03-16T17:57:32.126Z,68.13
2023-03-16T18:00:05.276Z,69.07
2023-03-16T18:02:58.033Z,69.36
2023-03-16T18:05:29.990Z,68.89
2023-03-16T18:08:22.321Z,68.15
2023-03-16T18:11:14.479Z,69.32
2023-03-16T18:13:42.459Z,70.18
2023-03-16T18:16:19.990Z,70.54
2023-03-16T18:18:48.852Z,69.67
2023-03-16T18:21:27.202Z,69.88
2023-03-16T18:23:57.147Z,69.62
2023-03-16T18:26:48.693Z,70.23
2023-03-16T18:29:18.840Z,70.39
2023-03-16T18:32:08.761Z,69.26
2023-03-16T18:34:46.666Z,69.24
2023-03-16T18:37:23.854Z,69.29
2023-03-16T18:39:57.674Z,69.55
2023-03-16T18:42:28.198Z,68.43
2023-03-16T18:45:21.223Z,69.05
2023-03-16T18:47:57.036Z,70.89
2023-03-16T18:50:34.215Z,69.07
2023-03-16T18:53:02.358Z,68.29
2023-03-16T18:55:31.819Z,69.04
2023-03-16T18:58:03.496Z,68.53
2023-03-16T19:00:35.698Z,67.50
2023-03-16T19:03:03.694Z,67.83
2023-03-16T19:05:37.931Z,68.81
2023-03-16T19:08:10.153Z,69.00
2023-03-16T19:10:49.497Z,70.81
2023-03-16T19:13:21.588Z,69.97
2023-03-16T19:15:53.479Z,70.92
2023-03-16T19:18:26.107Z,71.07
2023-03-16T19:20:55.684Z,71.62
2023-03-16T19:23:36.550Z,70.81
2023-03-16T19:26:06.907Z,72.32
2023-03-16T19:28:41.079Z,71.60
2023-03-16T19:31:29.880Z,72.83
2023-03-16T19:34:06.616Z,71.25
2023-03-16T19:36:34.568Z,73.46
2023-03-16T19:39:03.357Z,73.09
2023-03-16T19:41:42.515Z,72.06
2023-03-16T19:44:23.012Z,74.51
2023-03-16T19:46:52.925Z,76.83
2023-03-16T19:49:28.075Z,78.88
2023-03-16T19:51:58.178Z,77.95
2023-03-16T19:54:33.483Z,75.84
2023-03-16T19:57:12.444Z,74.05
2023-03-16T19:59:41.812Z,73.58
2023-03-16T20:02:40.934Z,74.95
2023-03-16T20:05:15.938Z,74.83
2023-03-16T20:07:47.842Z,75.30
2023-03-16T20:10:25.392Z,76.69
2023-03-16T20:13:04.260Z,78.04
2023-03-16T20:15:34.033Z,76.92
2023-03-16T20:18:03.257Z,75.78
2023-03-16T20:20:34.470Z,75.43
2023-03-16T20:23:04.999Z,77.49
2023-03-16T20:25:36.176Z,77.67
2023-03-16T20:28:27.572Z,79.72
2023-03-16T20:30:56.622Z,78.09
2023-03-16T20:33:26.276Z,79.19
2023-03-16T20:35:54.499Z,79.16
2023-03-16T20:38:23.068Z,76.15
2023-03-16T20:40:54.364Z,78.26
2023-03-16T20:43:32.354Z,80.62
2023-03-16T20:46:04.068Z,81.02
2023-03-16T20:48:35.452Z,79.62
2023-03-16T20:51:06.037Z,80.15
2023-03-16T20:53:38.749Z,80.41
2023-03-16T20:56:25.390Z,81.27
2023-03-16T20:58:56.173Z,80.21
2023-03-16T21:01:24.820Z,79.42
2023-03-16T21:03:55.519Z,81.36
2023-03-16T21:06:38.767Z,81.10
2023-03-16T21:09:08.958Z,81.21
2023-03-16T21:11:42.480Z,81.32
2023-03-16T21:14:33.445Z,82.33
2023-03-16T21:17:01.760Z,81.90
2023-03-16T21:19:29.547Z,80.44
2023-03-16T21:21:59.770Z,81.19
2023-03-16T21:24:28.453Z,81.46
2023-03-16T21:27:16.119Z,82.45
2023-03-16T21:29:45.295Z,83.17
2023-03-16T21:32:26.479Z,84.73
2023-03-16T21:34:57.934Z,85.58
2023-03-16T21:37:30.613Z,83.46
2023-03-16T21:42:39.895Z,87.15
2023-03-16T21:45:08.071Z,86.49
2023-03-16T21:47:38.255Z,89.83
2023-03-16T21:50:33.981Z,88.58
2023-03-16T21:53:04.751Z,88.14
2023-03-16T21:55:33.181Z,90.93
2023-03-16T21:58:04.494Z,88.71
2023-03-16T22:00:35.550Z,91.14
2023-03-16T22:03:06.429Z,90.19
2023-03-16T22:05:40.618Z,88.66
2023-03-16T22:08:16.433Z,88.08
2023-03-16T22:10:45.930Z,88.45
2023-03-16T22:13:13.877Z,88.05
2023-03-16T22:15:51.182Z,89.83
2023-03-16T22:18:34.965Z,90.98
2023-03-16T22:21:22.975Z,92.63
2023-03-16T22:23:50.723Z,93.87
2023-03-16T22:26:22.440Z,90.85
2023-03-16T22:28:54.210Z,91.22
2023-03-16T22:31:35.430Z,91.88
2023-03-16T22:34:05.481Z,91.18
2023-03-16T22:36:34.085Z,90.88
2023-03-16T22:39:08.786Z,91.50
2023-03-16T22:41:36.367Z,92.49
2023-03-16T22:44:04.117Z,91.90
2023-03-16T22:46:31.834Z,93.10
2023-03-16T22:48:59.386Z,94.86
2023-03-16T22:51:33.305Z,92.90
2023-03-16T22:54:08.644Z,94.62
2023-03-16T22:56:36.694Z,95.16
2023-03-16T22:59:13.656Z,93.18
2023-03-16T23:01:44.316Z,94.51
2023-03-16T23:04:30.540Z,95.40
2023-03-16T23:06:59.462Z,94.52
2023-03-16T23:09:26.978Z,95.61
2023-03-16T23:11:56.660Z,95.39
2023-03-16T23:14:29.315Z,95.09
2023-03-16T23:16:57.327Z,93.55
2023-03-16T23:19:35.425Z,93.90
2023-03-16T23:22:06.075Z,92.86
2023-03-16T23:24:35.086Z,93.72
2023-03-16T23:27:04.361Z,94.01
2023-03-16T23:29:35.088Z,93.46
2023-03-16T23:32:04.455Z,93.05
2023-03-16T23:34:32.149Z,93.39
2023-03-16T23:36:59.614Z,91.59
2023-03-16T23:39:28.442Z,92.10
2023-03-16T23:41:56.413Z,91.94
2023-03-16T23:44:28.301Z,93.50
2023-03-16T23:46:56.097Z,95.59
2023-03-16T23:49:27.987Z,95.13
2023-03-16T23:51:58.632Z,92.86
2023-03-16T23:54:30.707Z,94.42
2023-03-16T23:56:58.624Z,93.52
2023-03-16T23:59:27.840Z,93.41
